sensor_id;sensor_type;location;lat;lon;timestamp;P1;durP1;ratioP1;P2;durP2;ratioP2
17365;SDS011;8800;50.118;9.900;2023-02-11T00:01:41;57.20;;;21.65;;
17365;SDS011;8800;50.118;9.900;2023-02-11T00:04:07;55.65;;;20.83;;
17365;SDS011;8800;50.118;9.900;2023-02-11T00:06:34;52.97;;;20.63;;
17365;SDS011;8800;50.118;9.900;2023-02-11T00:09:02;53.25;;;20.33;;
17365;SDS011;8800;50.118;9.900;2023-02-11T00:11:28;50.85;;;20.20;;
17365;SDS011;8800;50.118;9.900;2023-02-11T00:13:55;55.72;;;18.88;;
17365;SDS011;8800;50.118;9.900;2023-02-11T00:16:22;52.13;;;19.80;;
17365;SDS011;8800;50.118;9.900;2023-02-11T00:18:48;53.42;;;20.85;;
17365;SDS011;8800;50.118;9.900;2023-02-11T00:21:18;48.50;;;19.08;;
17365;SDS011;8800;50.118;9.900;2023-02-11T00:23:45;56.70;;;20.50;;
17365;SDS011;8800;50.118;9.900;2023-02-11T00:26:13;53.80;;;19.60;;
17365;SDS011;8800;50.118;9.900;2023-02-11T00:28:40;51.58;;;20.25;;
17365;SDS011;8800;50.118;9.900;2023-02-11T00:31:06;49.38;;;19.30;;
17365;SDS011;8800;50.118;9.900;2023-02-11T00:33:33;45.60;;;19.42;;
17365;SDS011;8800;50.118;9.900;2023-02-11T00:36:02;54.28;;;20.15;;
17365;SDS011;8800;50.118;9.900;2023-02-11T00:38:28;57.72;;;21.65;;
17365;SDS011;8800;50.118;9.900;2023-02-11T00:40:55;54.13;;;21.13;;
17365;SDS011;8800;50.118;9.900;2023-02-11T00:43:23;54.10;;;20.50;;
17365;SDS011;8800;50.118;9.900;2023-02-11T00:45:49;51.92;;;20.50;;
17365;SDS011;8800;50.118;9.900;2023-02-11T00:48:16;55.20;;;22.00;;
17365;SDS011;8800;50.118;9.900;2023-02-11T00:50:42;55.67;;;20.45;;
17365;SDS011;8800;50.118;9.900;2023-02-11T00:53:09;52.65;;;20.45;;
17365;SDS011;8800;50.118;9.900;2023-02-11T00:55:35;56.13;;;21.13;;
17365;SDS011;8800;50.118;9.900;2023-02-11T00:58:01;50.08;;;20.17;;
17365;SDS011;8800;50.118;9.900;2023-02-11T01:00:29;53.25;;;21.08;;
17365;SDS011;8800;50.118;9.900;2023-02-11T01:02:57;51.40;;;20.90;;
17365;SDS011;8800;50.118;9.900;2023-02-11T01:05:23;60.75;;;23.55;;
17365;SDS011;8800;50.118;9.900;2023-02-11T01:07:49;308.65;;;86.70;;
17365;SDS011;8800;50.118;9.900;2023-02-11T01:10:16;118.97;;;40.22;;
17365;SDS011;8800;50.118;9.900;2023-02-11T01:12:42;138.80;;;43.15;;
17365;SDS011;8800;50.118;9.900;2023-02-11T01:15:11;123.97;;;38.65;;
17365;SDS011;8800;50.118;9.900;2023-02-11T01:17:40;112.78;;;36.60;;
17365;SDS011;8800;50.118;9.900;2023-02-11T01:20:10;76.97;;;28.17;;
17365;SDS011;8800;50.118;9.900;2023-02-11T01:22:37;68.80;;;26.70;;
17365;SDS011;8800;50.118;9.900;2023-02-11T01:25:04;102.25;;;35.10;;
17365;SDS011;8800;50.118;9.900;2023-02-11T01:27:30;81.80;;;30.70;;
17365;SDS011;8800;50.118;9.900;2023-02-11T01:29:57;72.97;;;25.63;;
17365;SDS011;8800;50.118;9.900;2023-02-11T01:32:23;58.88;;;22.48;;
17365;SDS011;8800;50.118;9.900;2023-02-11T01:34:51;52.63;;;20.92;;
17365;SDS011;8800;50.118;9.900;2023-02-11T01:37:17;51.83;;;20.55;;
17365;SDS011;8800;50.118;9.900;2023-02-11T01:39:44;52.97;;;20.75;;
17365;SDS011;8800;50.118;9.900;2023-02-11T01:42:10;52.28;;;21.35;;
17365;SDS011;8800;50.118;9.900;2023-02-11T01:44:40;59.63;;;22.08;;
17365;SDS011;8800;50.118;9.900;2023-02-11T01:47:07;48.58;;;19.67;;
17365;SDS011;8800;50.118;9.900;2023-02-11T01:49:34;50.03;;;20.60;;
17365;SDS011;8800;50.118;9.900;2023-02-11T01:52:04;52.55;;;21.40;;
17365;SDS011;8800;50.118;9.900;2023-02-11T01:54:32;59.35;;;23.13;;
17365;SDS011;8800;50.118;9.900;2023-02-11T01:57:17;61.03;;;23.45;;
17365;SDS011;8800;50.118;9.900;2023-02-11T01:59:56;57.92;;;22.98;;
17365;SDS011;8800;50.118;9.900;2023-02-11T02:02:25;57.13;;;22.88;;
17365;SDS011;8800;50.118;9.900;2023-02-11T02:04:52;59.50;;;22.55;;
17365;SDS011;8800;50.118;9.900;2023-02-11T02:07:24;58.05;;;22.27;;
17365;SDS011;8800;50.118;9.900;2023-02-11T02:09:54;57.63;;;22.30;;
17365;SDS011;8800;50.118;9.900;2023-02-11T02:12:23;58.72;;;23.02;;
17365;SDS011;8800;50.118;9.900;2023-02-11T02:14:49;55.80;;;21.38;;
17365;SDS011;8800;50.118;9.900;2023-02-11T02:17:18;51.15;;;21.23;;
17365;SDS011;8800;50.118;9.900;2023-02-11T02:22:40;52.67;;;20.65;;
17365;SDS011;8800;50.118;9.900;2023-02-11T02:25:18;53.00;;;20.70;;
17365;SDS011;8800;50.118;9.900;2023-02-11T02:27:51;63.85;;;22.25;;
17365;SDS011;8800;50.118;9.900;2023-02-11T02:33:24;51.75;;;20.30;;
17365;SDS011;8800;50.118;9.900;2023-02-11T02:35:55;52.47;;;20.83;;
17365;SDS011;8800;50.118;9.900;2023-02-11T02:38:24;53.80;;;19.98;;
17365;SDS011;8800;50.118;9.900;2023-02-11T02:40:52;51.92;;;20.75;;
17365;SDS011;8800;50.118;9.900;2023-02-11T02:43:19;51.95;;;20.10;;
17365;SDS011;8800;50.118;9.900;2023-02-11T02:45:46;57.30;;;20.40;;
17365;SDS011;8800;50.118;9.900;2023-02-11T02:48:27;56.35;;;21.08;;
17365;SDS011;8800;50.118;9.900;2023-02-11T02:50:56;49.38;;;19.40;;
17365;SDS011;8800;50.118;9.900;2023-02-11T02:53:29;51.63;;;19.90;;
17365;SDS011;8800;50.118;9.900;2023-02-11T02:55:59;50.25;;;19.40;;
17365;SDS011;8800;50.118;9.900;2023-02-11T02:58:41;50.08;;;19.83;;
17365;SDS011;8800;50.118;9.900;2023-02-11T03:01:19;54.47;;;20.30;;
17365;SDS011;8800;50.118;9.900;2023-02-11T03:03:48;48.97;;;20.85;;
17365;SDS011;8800;50.118;9.900;2023-02-11T03:06:21;49.15;;;19.98;;
17365;SDS011;8800;50.118;9.900;2023-02-11T03:08:52;70.63;;;25.25;;
17365;SDS011;8800;50.118;9.900;2023-02-11T03:11:22;60.58;;;22.77;;
17365;SDS011;8800;50.118;9.900;2023-02-11T03:13:49;46.25;;;19.85;;
17365;SDS011;8800;50.118;9.900;2023-02-11T03:16:17;51.30;;;18.83;;
17365;SDS011;8800;50.118;9.900;2023-02-11T03:18:46;44.63;;;18.55;;
17365;SDS011;8800;50.118;9.900;2023-02-11T03:21:15;43.60;;;18.20;;
17365;SDS011;8800;50.118;9.900;2023-02-11T03:23:43;46.17;;;18.48;;
17365;SDS011;8800;50.118;9.900;2023-02-11T03:26:14;45.40;;;18.65;;
17365;SDS011;8800;50.118;9.900;2023-02-11T03:28:43;45.25;;;18.17;;
17365;SDS011;8800;50.118;9.900;2023-02-11T03:31:12;45.42;;;17.40;;
17365;SDS011;8800;50.118;9.900;2023-02-11T03:33:41;43.30;;;18.13;;
17365;SDS011;8800;50.118;9.900;2023-02-11T03:36:12;46.85;;;18.75;;
17365;SDS011;8800;50.118;9.900;2023-02-11T03:38:43;48.13;;;18.88;;
17365;SDS011;8800;50.118;9.900;2023-02-11T03:41:14;51.10;;;20.42;;
17365;SDS011;8800;50.118;9.900;2023-02-11T03:43:43;58.03;;;20.55;;
17365;SDS011;8800;50.118;9.900;2023-02-11T03:46:12;47.00;;;20.02;;
17365;SDS011;8800;50.118;9.900;2023-02-11T03:48:40;54.50;;;20.40;;
17365;SDS011;8800;50.118;9.900;2023-02-11T03:51:08;54.42;;;20.38;;
17365;SDS011;8800;50.118;9.900;2023-02-11T03:53:36;47.53;;;19.38;;
17365;SDS011;8800;50.118;9.900;2023-02-11T03:56:06;52.17;;;18.98;;
17365;SDS011;8800;50.118;9.900;2023-02-11T03:58:33;51.20;;;19.58;;
17365;SDS011;8800;50.118;9.900;2023-02-11T04:01:00;47.17;;;18.77;;
17365;SDS011;8800;50.118;9.900;2023-02-11T04:03:26;50.58;;;18.85;;
17365;SDS011;8800;50.118;9.900;2023-02-11T04:05:53;47.15;;;19.52;;
17365;SDS011;8800;50.118;9.900;2023-02-11T04:08:19;55.17;;;19.48;;
17365;SDS011;8800;50.118;9.900;2023-02-11T04:10:46;50.15;;;20.15;;
17365;SDS011;8800;50.118;9.900;2023-02-11T04:13:14;48.05;;;19.52;;
17365;SDS011;8800;50.118;9.900;2023-02-11T04:15:40;50.50;;;19.48;;
17365;SDS011;8800;50.118;9.900;2023-02-11T04:18:06;48.78;;;19.33;;
17365;SDS011;8800;50.118;9.900;2023-02-11T04:20:33;50.17;;;19.45;;
17365;SDS011;8800;50.118;9.900;2023-02-11T04:22:59;49.28;;;18.80;;
17365;SDS011;8800;50.118;9.900;2023-02-11T04:25:25;46.47;;;19.25;;
17365;SDS011;8800;50.118;9.900;2023-02-11T04:27:52;44.50;;;18.65;;
17365;SDS011;8800;50.118;9.900;2023-02-11T04:30:19;50.05;;;20.08;;
17365;SDS011;8800;50.118;9.900;2023-02-11T04:32:46;53.58;;;20.70;;
17365;SDS011;8800;50.118;9.900;2023-02-11T04:35:12;48.15;;;19.27;;
17365;SDS011;8800;50.118;9.900;2023-02-11T04:37:39;51.30;;;18.85;;
17365;SDS011;8800;50.118;9.900;2023-02-11T04:40:05;49.60;;;19.95;;
17365;SDS011;8800;50.118;9.900;2023-02-11T04:42:32;52.63;;;18.92;;
17365;SDS011;8800;50.118;9.900;2023-02-11T04:44:58;46.38;;;19.27;;
17365;SDS011;8800;50.118;9.900;2023-02-11T04:47:27;51.10;;;20.15;;
17365;SDS011;8800;50.118;9.900;2023-02-11T04:49:53;44.42;;;18.35;;
17365;SDS011;8800;50.118;9.900;2023-02-11T04:52:20;46.00;;;18.10;;
17365;SDS011;8800;50.118;9.900;2023-02-11T04:54:46;46.15;;;17.73;;
17365;SDS011;8800;50.118;9.900;2023-02-11T04:57:12;44.38;;;17.52;;
17365;SDS011;8800;50.118;9.900;2023-02-11T04:59:39;45.33;;;17.90;;
17365;SDS011;8800;50.118;9.900;2023-02-11T05:02:05;50.50;;;18.95;;
17365;SDS011;8800;50.118;9.900;2023-02-11T05:04:33;43.75;;;17.90;;
17365;SDS011;8800;50.118;9.900;2023-02-11T05:06:59;47.50;;;18.13;;
17365;SDS011;8800;50.118;9.900;2023-02-11T05:09:26;49.38;;;18.38;;
17365;SDS011;8800;50.118;9.900;2023-02-11T05:11:52;45.22;;;19.65;;
17365;SDS011;8800;50.118;9.900;2023-02-11T05:14:18;49.58;;;19.23;;
17365;SDS011;8800;50.118;9.900;2023-02-11T05:16:46;43.40;;;17.75;;
17365;SDS011;8800;50.118;9.900;2023-02-11T05:19:13;52.45;;;19.15;;
17365;SDS011;8800;50.118;9.900;2023-02-11T05:21:41;48.00;;;17.95;;
17365;SDS011;8800;50.118;9.900;2023-02-11T05:24:07;41.67;;;16.75;;
17365;SDS011;8800;50.118;9.900;2023-02-11T05:26:33;42.75;;;17.20;;
17365;SDS011;8800;50.118;9.900;2023-02-11T05:29:00;40.05;;;17.27;;
17365;SDS011;8800;50.118;9.900;2023-02-11T05:31:26;41.40;;;17.90;;
17365;SDS011;8800;50.118;9.900;2023-02-11T05:33:52;43.83;;;17.40;;
17365;SDS011;8800;50.118;9.900;2023-02-11T05:36:19;44.25;;;18.02;;
17365;SDS011;8800;50.118;9.900;2023-02-11T05:38:46;44.45;;;17.85;;
17365;SDS011;8800;50.118;9.900;2023-02-11T05:41:14;44.42;;;17.70;;
17365;SDS011;8800;50.118;9.900;2023-02-11T05:43:41;47.28;;;17.65;;
17365;SDS011;8800;50.118;9.900;2023-02-11T05:46:07;48.40;;;17.52;;
17365;SDS011;8800;50.118;9.900;2023-02-11T05:48:33;40.35;;;18.33;;
17365;SDS011;8800;50.118;9.900;2023-02-11T05:51:00;43.00;;;17.65;;
17365;SDS011;8800;50.118;9.900;2023-02-11T05:53:26;50.45;;;17.23;;
17365;SDS011;8800;50.118;9.900;2023-02-11T05:55:54;40.95;;;16.77;;
17365;SDS011;8800;50.118;9.900;2023-02-11T05:58:20;44.22;;;17.58;;
17365;SDS011;8800;50.118;9.900;2023-02-11T06:00:47;42.15;;;16.77;;
17365;SDS011;8800;50.118;9.900;2023-02-11T06:03:13;38.00;;;16.48;;
17365;SDS011;8800;50.118;9.900;2023-02-11T06:05:41;45.03;;;18.38;;
17365;SDS011;8800;50.118;9.900;2023-02-11T06:08:07;50.00;;;18.70;;
17365;SDS011;8800;50.118;9.900;2023-02-11T06:10:34;43.35;;;17.02;;
17365;SDS011;8800;50.118;9.900;2023-02-11T06:13:02;40.63;;;16.65;;
17365;SDS011;8800;50.118;9.900;2023-02-11T06:15:28;40.92;;;17.52;;
17365;SDS011;8800;50.118;9.900;2023-02-11T06:17:54;46.85;;;17.67;;
17365;SDS011;8800;50.118;9.900;2023-02-11T06:20:21;45.50;;;18.23;;
17365;SDS011;8800;50.118;9.900;2023-02-11T06:22:47;40.50;;;17.08;;
17365;SDS011;8800;50.118;9.900;2023-02-11T06:25:14;45.72;;;18.63;;
17365;SDS011;8800;50.118;9.900;2023-02-11T06:27:40;44.00;;;17.60;;
17365;SDS011;8800;50.118;9.900;2023-02-11T06:30:09;43.03;;;17.65;;
17365;SDS011;8800;50.118;9.900;2023-02-11T06:32:35;47.28;;;18.13;;
17365;SDS011;8800;50.118;9.900;2023-02-11T06:35:02;38.45;;;16.30;;
17365;SDS011;8800;50.118;9.900;2023-02-11T06:37:28;38.42;;;16.70;;
17365;SDS011;8800;50.118;9.900;2023-02-11T06:39:55;43.97;;;16.67;;
17365;SDS011;8800;50.118;9.900;2023-02-11T06:42:21;45.65;;;18.70;;
17365;SDS011;8800;50.118;9.900;2023-02-11T06:44:48;45.10;;;17.33;;
17365;SDS011;8800;50.118;9.900;2023-02-11T06:47:15;41.60;;;17.05;;
17365;SDS011;8800;50.118;9.900;2023-02-11T06:49:42;49.65;;;20.35;;
17365;SDS011;8800;50.118;9.900;2023-02-11T06:52:08;44.22;;;18.83;;
17365;SDS011;8800;50.118;9.900;2023-02-11T06:54:35;43.67;;;17.88;;
17365;SDS011;8800;50.118;9.900;2023-02-11T06:57:01;50.20;;;18.30;;
17365;SDS011;8800;50.118;9.900;2023-02-11T06:59:27;42.30;;;18.25;;
17365;SDS011;8800;50.118;9.900;2023-02-11T07:01:54;54.67;;;20.70;;
17365;SDS011;8800;50.118;9.900;2023-02-11T07:04:21;54.08;;;19.73;;
17365;SDS011;8800;50.118;9.900;2023-02-11T07:06:48;39.10;;;16.20;;
17365;SDS011;8800;50.118;9.900;2023-02-11T07:09:14;39.05;;;15.55;;
17365;SDS011;8800;50.118;9.900;2023-02-11T07:11:41;37.28;;;15.40;;
17365;SDS011;8800;50.118;9.900;2023-02-11T07:14:07;35.83;;;15.32;;
17365;SDS011;8800;50.118;9.900;2023-02-11T07:16:34;38.13;;;15.48;;
17365;SDS011;8800;50.118;9.900;2023-02-11T07:19:00;34.15;;;14.70;;
17365;SDS011;8800;50.118;9.900;2023-02-11T07:21:28;34.35;;;14.73;;
17365;SDS011;8800;50.118;9.900;2023-02-11T07:23:55;38.35;;;16.00;;
17365;SDS011;8800;50.118;9.900;2023-02-11T07:26:22;34.67;;;15.10;;
17365;SDS011;8800;50.118;9.900;2023-02-11T07:28:49;39.20;;;17.23;;
17365;SDS011;8800;50.118;9.900;2023-02-11T07:31:17;35.30;;;14.13;;
17365;SDS011;8800;50.118;9.900;2023-02-11T07:33:43;34.92;;;14.13;;
17365;SDS011;8800;50.118;9.900;2023-02-11T07:36:11;32.70;;;14.02;;
17365;SDS011;8800;50.118;9.900;2023-02-11T07:38:39;37.50;;;15.18;;
17365;SDS011;8800;50.118;9.900;2023-02-11T07:41:06;38.97;;;14.63;;
17365;SDS011;8800;50.118;9.900;2023-02-11T07:43:33;39.22;;;14.95;;
17365;SDS011;8800;50.118;9.900;2023-02-11T07:46:01;37.42;;;14.38;;
17365;SDS011;8800;50.118;9.900;2023-02-11T07:48:28;29.88;;;13.38;;
17365;SDS011;8800;50.118;9.900;2023-02-11T07:50:54;33.97;;;13.95;;
17365;SDS011;8800;50.118;9.900;2023-02-11T07:53:20;37.75;;;14.20;;
17365;SDS011;8800;50.118;9.900;2023-02-11T07:55:48;40.28;;;17.08;;
17365;SDS011;8800;50.118;9.900;2023-02-11T07:58:15;35.97;;;15.40;;
17365;SDS011;8800;50.118;9.900;2023-02-11T08:00:41;36.13;;;13.88;;
17365;SDS011;8800;50.118;9.900;2023-02-11T08:03:07;30.65;;;13.85;;
17365;SDS011;8800;50.118;9.900;2023-02-11T08:05:36;43.50;;;18.15;;
17365;SDS011;8800;50.118;9.900;2023-02-11T08:08:03;47.72;;;17.88;;
17365;SDS011;8800;50.118;9.900;2023-02-11T08:10:29;45.60;;;17.50;;
17365;SDS011;8800;50.118;9.900;2023-02-11T08:12:57;42.33;;;17.17;;
17365;SDS011;8800;50.118;9.900;2023-02-11T08:15:23;37.85;;;15.88;;
17365;SDS011;8800;50.118;9.900;2023-02-11T08:17:50;40.13;;;16.30;;
17365;SDS011;8800;50.118;9.900;2023-02-11T08:20:16;31.33;;;14.05;;
17365;SDS011;8800;50.118;9.900;2023-02-11T08:22:42;36.25;;;13.98;;
17365;SDS011;8800;50.118;9.900;2023-02-11T08:25:09;32.88;;;12.90;;
17365;SDS011;8800;50.118;9.900;2023-02-11T08:27:35;33.25;;;13.60;;
17365;SDS011;8800;50.118;9.900;2023-02-11T08:30:03;43.35;;;17.50;;
17365;SDS011;8800;50.118;9.900;2023-02-11T08:32:30;83.15;;;30.58;;
17365;SDS011;8800;50.118;9.900;2023-02-11T08:34:56;57.28;;;23.35;;
17365;SDS011;8800;50.118;9.900;2023-02-11T08:37:23;48.22;;;19.90;;
17365;SDS011;8800;50.118;9.900;2023-02-11T08:39:49;45.63;;;17.25;;
17365;SDS011;8800;50.118;9.900;2023-02-11T08:42:15;40.83;;;17.30;;
17365;SDS011;8800;50.118;9.900;2023-02-11T08:44:42;39.40;;;16.00;;
17365;SDS011;8800;50.118;9.900;2023-02-11T08:47:09;39.55;;;17.30;;
17365;SDS011;8800;50.118;9.900;2023-02-11T08:49:36;38.95;;;16.17;;
17365;SDS011;8800;50.118;9.900;2023-02-11T08:52:03;34.95;;;15.57;;
17365;SDS011;8800;50.118;9.900;2023-02-11T08:54:29;36.42;;;14.93;;
17365;SDS011;8800;50.118;9.900;2023-02-11T08:56:56;37.55;;;15.30;;
17365;SDS011;8800;50.118;9.900;2023-02-11T08:59:22;37.15;;;16.13;;
17365;SDS011;8800;50.118;9.900;2023-02-11T09:01:48;40.53;;;16.17;;
17365;SDS011;8800;50.118;9.900;2023-02-11T09:04:16;39.83;;;15.63;;
17365;SDS011;8800;50.118;9.900;2023-02-11T09:06:43;37.08;;;15.98;;
17365;SDS011;8800;50.118;9.900;2023-02-11T09:09:09;40.10;;;16.73;;
17365;SDS011;8800;50.118;9.900;2023-02-11T09:11:37;40.90;;;16.55;;
17365;SDS011;8800;50.118;9.900;2023-02-11T09:14:04;40.08;;;16.92;;
17365;SDS011;8800;50.118;9.900;2023-02-11T09:16:32;39.15;;;16.92;;
17365;SDS011;8800;50.118;9.900;2023-02-11T09:18:59;40.10;;;16.30;;
17365;SDS011;8800;50.118;9.900;2023-02-11T09:21:27;48.85;;;18.50;;
17365;SDS011;8800;50.118;9.900;2023-02-11T09:23:53;45.80;;;18.25;;
17365;SDS011;8800;50.118;9.900;2023-02-11T09:26:21;42.92;;;17.38;;
17365;SDS011;8800;50.118;9.900;2023-02-11T09:28:47;37.20;;;15.23;;
17365;SDS011;8800;50.118;9.900;2023-02-11T09:31:15;36.40;;;15.63;;
17365;SDS011;8800;50.118;9.900;2023-02-11T09:33:42;32.65;;;14.95;;
17365;SDS011;8800;50.118;9.900;2023-02-11T09:36:12;41.30;;;16.55;;
17365;SDS011;8800;50.118;9.900;2023-02-11T09:38:40;41.35;;;16.35;;
17365;SDS011;8800;50.118;9.900;2023-02-11T09:41:12;39.75;;;16.58;;
17365;SDS011;8800;50.118;9.900;2023-02-11T09:43:43;38.88;;;16.02;;
17365;SDS011;8800;50.118;9.900;2023-02-11T09:46:11;45.90;;;17.25;;
17365;SDS011;8800;50.118;9.900;2023-02-11T09:48:39;42.20;;;17.27;;
17365;SDS011;8800;50.118;9.900;2023-02-11T09:51:09;47.08;;;18.35;;
17365;SDS011;8800;50.118;9.900;2023-02-11T09:53:42;41.72;;;16.15;;
17365;SDS011;8800;50.118;9.900;2023-02-11T09:56:09;41.67;;;16.58;;
17365;SDS011;8800;50.118;9.900;2023-02-11T09:58:37;55.55;;;20.77;;
17365;SDS011;8800;50.118;9.900;2023-02-11T10:01:06;42.25;;;18.25;;
17365;SDS011;8800;50.118;9.900;2023-02-11T10:03:46;40.97;;;17.20;;
17365;SDS011;8800;50.118;9.900;2023-02-11T10:06:24;42.00;;;17.35;;
17365;SDS011;8800;50.118;9.900;2023-02-11T10:08:58;48.55;;;16.52;;
17365;SDS011;8800;50.118;9.900;2023-02-11T10:11:29;40.35;;;16.00;;
17365;SDS011;8800;50.118;9.900;2023-02-11T10:13:58;39.35;;;16.83;;
17365;SDS011;8800;50.118;9.900;2023-02-11T10:16:40;47.80;;;16.30;;
17365;SDS011;8800;50.118;9.900;2023-02-11T10:19:18;42.55;;;17.83;;
17365;SDS011;8800;50.118;9.900;2023-02-11T10:21:54;37.63;;;16.88;;
17365;SDS011;8800;50.118;9.900;2023-02-11T10:24:25;39.88;;;17.27;;
17365;SDS011;8800;50.118;9.900;2023-02-11T10:26:53;41.67;;;16.35;;
17365;SDS011;8800;50.118;9.900;2023-02-11T10:29:25;37.17;;;16.30;;
17365;SDS011;8800;50.118;9.900;2023-02-11T10:31:55;43.65;;;17.08;;
17365;SDS011;8800;50.118;9.900;2023-02-11T10:34:22;46.40;;;18.17;;
17365;SDS011;8800;50.118;9.900;2023-02-11T10:36:49;58.38;;;22.13;;
17365;SDS011;8800;50.118;9.900;2023-02-11T10:39:16;49.17;;;18.15;;
17365;SDS011;8800;50.118;9.900;2023-02-11T10:41:45;53.50;;;22.20;;
17365;SDS011;8800;50.118;9.900;2023-02-11T10:44:16;46.65;;;18.58;;
17365;SDS011;8800;50.118;9.900;2023-02-11T10:46:44;56.75;;;23.33;;
17365;SDS011;8800;50.118;9.900;2023-02-11T10:49:12;47.67;;;20.35;;
17365;SDS011;8800;50.118;9.900;2023-02-11T10:52:06;42.67;;;18.17;;
17365;SDS011;8800;50.118;9.900;2023-02-11T10:54:37;41.88;;;17.75;;
17365;SDS011;8800;50.118;9.900;2023-02-11T10:57:05;39.72;;;17.92;;
17365;SDS011;8800;50.118;9.900;2023-02-11T10:59:32;36.55;;;15.75;;
17365;SDS011;8800;50.118;9.900;2023-02-11T11:02:03;38.25;;;16.60;;
17365;SDS011;8800;50.118;9.900;2023-02-11T11:04:35;37.25;;;17.15;;
17365;SDS011;8800;50.118;9.900;2023-02-11T11:07:10;39.53;;;17.23;;
17365;SDS011;8800;50.118;9.900;2023-02-11T11:09:42;35.60;;;16.42;;
17365;SDS011;8800;50.118;9.900;2023-02-11T11:12:16;42.17;;;17.63;;
17365;SDS011;8800;50.118;9.900;2023-02-11T11:14:52;39.70;;;16.25;;
17365;SDS011;8800;50.118;9.900;2023-02-11T11:17:19;38.63;;;16.13;;
17365;SDS011;8800;50.118;9.900;2023-02-11T11:19:45;35.75;;;15.93;;
17365;SDS011;8800;50.118;9.900;2023-02-11T11:22:17;40.10;;;15.82;;
17365;SDS011;8800;50.118;9.900;2023-02-11T11:24:45;40.78;;;16.38;;
17365;SDS011;8800;50.118;9.900;2023-02-11T11:27:20;40.28;;;17.08;;
17365;SDS011;8800;50.118;9.900;2023-02-11T11:29:52;35.28;;;15.00;;
17365;SDS011;8800;50.118;9.900;2023-02-11T11:32:19;39.03;;;16.13;;
17365;SDS011;8800;50.118;9.900;2023-02-11T11:34:48;41.33;;;16.13;;
17365;SDS011;8800;50.118;9.900;2023-02-11T11:37:18;42.00;;;15.75;;
17365;SDS011;8800;50.118;9.900;2023-02-11T11:39:47;35.50;;;16.55;;
17365;SDS011;8800;50.118;9.900;2023-02-11T11:42:25;37.83;;;15.68;;
17365;SDS011;8800;50.118;9.900;2023-02-11T11:44:55;41.40;;;16.10;;
17365;SDS011;8800;50.118;9.900;2023-02-11T11:47:24;41.63;;;16.27;;
17365;SDS011;8800;50.118;9.900;2023-02-11T11:50:08;35.97;;;15.68;;
17365;SDS011;8800;50.118;9.900;2023-02-11T11:52:38;40.35;;;16.02;;
17365;SDS011;8800;50.118;9.900;2023-02-11T11:55:18;34.60;;;14.60;;
17365;SDS011;8800;50.118;9.900;2023-02-11T11:57:47;34.40;;;14.98;;
17365;SDS011;8800;50.118;9.900;2023-02-11T12:00:15;36.55;;;15.18;;
17365;SDS011;8800;50.118;9.900;2023-02-11T12:05:30;32.70;;;14.23;;
17365;SDS011;8800;50.118;9.900;2023-02-11T12:08:03;35.58;;;14.15;;
17365;SDS011;8800;50.118;9.900;2023-02-11T12:10:43;33.60;;;14.45;;
17365;SDS011;8800;50.118;9.900;2023-02-11T12:13:17;30.58;;;13.77;;
17365;SDS011;8800;50.118;9.900;2023-02-11T12:15:48;30.85;;;13.77;;
17365;SDS011;8800;50.118;9.900;2023-02-11T12:18:20;34.00;;;14.30;;
17365;SDS011;8800;50.118;9.900;2023-02-11T12:20:57;34.35;;;14.05;;
17365;SDS011;8800;50.118;9.900;2023-02-11T12:23:31;35.10;;;14.38;;
17365;SDS011;8800;50.118;9.900;2023-02-11T12:26:01;36.30;;;14.63;;
17365;SDS011;8800;50.118;9.900;2023-02-11T12:28:33;36.30;;;13.85;;
17365;SDS011;8800;50.118;9.900;2023-02-11T12:31:09;32.38;;;14.25;;
17365;SDS011;8800;50.118;9.900;2023-02-11T12:33:43;96.93;;;28.65;;
17365;SDS011;8800;50.118;9.900;2023-02-11T12:36:17;52.70;;;18.77;;
17365;SDS011;8800;50.118;9.900;2023-02-11T12:38:54;46.50;;;18.77;;
17365;SDS011;8800;50.118;9.900;2023-02-11T12:41:28;38.25;;;15.88;;
17365;SDS011;8800;50.118;9.900;2023-02-11T12:44:21;38.42;;;15.40;;
17365;SDS011;8800;50.118;9.900;2023-02-11T12:46:50;34.50;;;15.18;;
17365;SDS011;8800;50.118;9.900;2023-02-11T12:49:30;36.45;;;16.13;;
17365;SDS011;8800;50.118;9.900;2023-02-11T12:52:05;40.53;;;18.35;;
17365;SDS011;8800;50.118;9.900;2023-02-11T12:54:34;40.70;;;17.88;;
17365;SDS011;8800;50.118;9.900;2023-02-11T12:57:05;39.78;;;15.73;;
17365;SDS011;8800;50.118;9.900;2023-02-11T12:59:36;40.45;;;14.90;;
17365;SDS011;8800;50.118;9.900;2023-02-11T13:02:09;39.67;;;15.98;;
17365;SDS011;8800;50.118;9.900;2023-02-11T13:04:37;38.10;;;16.65;;
17365;SDS011;8800;50.118;9.900;2023-02-11T13:07:08;43.33;;;17.67;;
17365;SDS011;8800;50.118;9.900;2023-02-11T13:09:37;35.75;;;15.32;;
17365;SDS011;8800;50.118;9.900;2023-02-11T13:12:06;41.85;;;16.52;;
17365;SDS011;8800;50.118;9.900;2023-02-11T13:14:48;38.08;;;16.35;;
17365;SDS011;8800;50.118;9.900;2023-02-11T13:17:16;35.13;;;15.90;;
17365;SDS011;8800;50.118;9.900;2023-02-11T13:19:48;36.97;;;16.13;;
17365;SDS011;8800;50.118;9.900;2023-02-11T13:22:16;43.30;;;16.70;;
17365;SDS011;8800;50.118;9.900;2023-02-11T13:24:45;38.05;;;17.38;;
17365;SDS011;8800;50.118;9.900;2023-02-11T13:27:22;43.50;;;18.58;;
17365;SDS011;8800;50.118;9.900;2023-02-11T13:30:15;41.50;;;16.42;;
17365;SDS011;8800;50.118;9.900;2023-02-11T13:35:28;38.85;;;15.23;;
17365;SDS011;8800;50.118;9.900;2023-02-11T13:37:55;36.47;;;15.30;;
17365;SDS011;8800;50.118;9.900;2023-02-11T13:40:23;37.53;;;15.82;;
17365;SDS011;8800;50.118;9.900;2023-02-11T13:42:50;33.92;;;15.63;;
17365;SDS011;8800;50.118;9.900;2023-02-11T13:45:21;35.15;;;17.27;;
17365;SDS011;8800;50.118;9.900;2023-02-11T13:47:54;32.80;;;15.40;;
17365;SDS011;8800;50.118;9.900;2023-02-11T13:50:22;36.25;;;15.80;;
17365;SDS011;8800;50.118;9.900;2023-02-11T13:52:54;33.10;;;15.27;;
17365;SDS011;8800;50.118;9.900;2023-02-11T13:55:22;45.78;;;20.35;;
17365;SDS011;8800;50.118;9.900;2023-02-11T14:03:26;36.15;;;15.98;;
17365;SDS011;8800;50.118;9.900;2023-02-11T14:06:20;38.33;;;16.30;;
17365;SDS011;8800;50.118;9.900;2023-02-11T14:11:50;39.63;;;16.20;;
17365;SDS011;8800;50.118;9.900;2023-02-11T14:14:20;37.50;;;15.13;;
17365;SDS011;8800;50.118;9.900;2023-02-11T14:19:43;37.10;;;15.68;;
17365;SDS011;8800;50.118;9.900;2023-02-11T14:22:11;30.38;;;14.35;;
17365;SDS011;8800;50.118;9.900;2023-02-11T14:24:51;35.50;;;15.18;;
17365;SDS011;8800;50.118;9.900;2023-02-11T14:27:20;34.72;;;15.48;;
17365;SDS011;8800;50.118;9.900;2023-02-11T14:29:49;35.58;;;15.45;;
17365;SDS011;8800;50.118;9.900;2023-02-11T14:32:22;31.30;;;15.52;;
17365;SDS011;8800;50.118;9.900;2023-02-11T14:34:57;37.40;;;16.58;;
17365;SDS011;8800;50.118;9.900;2023-02-11T14:37:30;40.45;;;19.45;;
17365;SDS011;8800;50.118;9.900;2023-02-11T14:40:02;42.78;;;18.23;;
17365;SDS011;8800;50.118;9.900;2023-02-11T14:42:30;37.58;;;18.40;;
17365;SDS011;8800;50.118;9.900;2023-02-11T14:44:56;37.50;;;14.55;;
17365;SDS011;8800;50.118;9.900;2023-02-11T14:47:25;38.72;;;16.23;;
17365;SDS011;8800;50.118;9.900;2023-02-11T14:49:54;33.70;;;14.50;;
17365;SDS011;8800;50.118;9.900;2023-02-11T14:52:24;33.83;;;15.35;;
17365;SDS011;8800;50.118;9.900;2023-02-11T14:55:00;30.45;;;15.05;;
17365;SDS011;8800;50.118;9.900;2023-02-11T14:57:30;33.08;;;16.35;;
17365;SDS011;8800;50.118;9.900;2023-02-11T14:59:58;36.40;;;17.27;;
17365;SDS011;8800;50.118;9.900;2023-02-11T15:02:27;34.30;;;15.45;;
17365;SDS011;8800;50.118;9.900;2023-02-11T15:04:54;28.45;;;13.40;;
17365;SDS011;8800;50.118;9.900;2023-02-11T15:07:42;29.38;;;13.73;;